Time;durP1;ratioP1;P1;durP2;ratioP2;P2;SDS_P1;SDS_P2;PMS_P1;PMS_P2;Temp;Humidity;BMP_temperature;BMP_pressure;BME280_temperature;BME280_humidity;BME280_pressure;Samples;Min_cycle;Max_cycle;Signal;HPM_P1;HPM_P2
2023/01/26 00:01:21;;;;;;;14.15;12.65;;;;;;;17.01;49.10;102546.22;4891825;29;20037;-85
2023/01/26 00:03:47;;;;;;;14.25;12.77;;;;;;;17.01;48.83;102551.41;4896095;29;20040;-85
2023/01/26 00:06:16;;;;;;;13.77;12.30;;;;;;;17.01;48.77;102550.53;4892222;29;20048;-86
2023/01/26 00:08:44;;;;;;;14.02;12.63;;;;;;;17.00;49.03;102549.63;4892753;29;20069;-86
2023/01/26 00:11:12;;;;;;;13.60;12.10;;;;;;;17.01;48.92;102547.94;4892465;29;20070;-84
2023/01/26 00:13:38;;;;;;;13.73;12.25;;;;;;;17.00;49.07;102541.84;4894936;29;20074;-85
2023/01/26 00:16:06;;;;;;;13.48;12.07;;;;;;;16.99;48.83;102539.22;4891817;29;20033;-84
2023/01/26 00:18:32;;;;;;;13.80;12.23;;;;;;;17.00;48.99;102540.97;4891583;29;20029;-84
2023/01/26 00:20:59;;;;;;;12.98;11.73;;;;;;;17.00;48.79;102533.16;4876763;29;20059;-84
2023/01/26 00:23:27;;;;;;;12.88;11.63;;;;;;;17.01;48.99;102533.19;4894938;29;20033;-86
2023/01/26 00:25:53;;;;;;;12.82;11.52;;;;;;;17.02;48.84;102528.88;4893930;29;20040;-86
2023/01/26 00:28:18;;;;;;;12.80;11.45;;;;;;;17.03;48.99;102535.84;4896317;29;20037;-85
2023/01/26 00:30:44;;;;;;;14.32;11.80;;;;;;;17.02;48.78;102527.13;4897242;29;20089;-86
2023/01/26 00:33:10;;;;;;;12.07;10.77;;;;;;;17.04;48.91;102532.38;4881136;29;20053;-85
2023/01/26 00:35:36;;;;;;;11.82;10.65;;;;;;;17.04;48.83;102532.38;4896562;29;20029;-86
2023/01/26 00:38:01;;;;;;;12.10;10.80;;;;;;;17.04;48.75;102533.25;4897055;29;20045;-86
2023/01/26 00:40:27;;;;;;;11.20;10.10;;;;;;;17.04;49.04;102524.56;4896960;29;20040;-83
2023/01/26 00:42:53;;;;;;;11.30;10.20;;;;;;;17.04;48.83;102519.38;4893005;29;20041;-84
2023/01/26 00:45:20;;;;;;;10.95;9.85;;;;;;;17.04;48.77;102512.44;4898177;29;20044;-85
2023/01/26 00:47:45;;;;;;;11.15;10.02;;;;;;;17.05;48.71;102510.75;4895860;29;20072;-86
2023/01/26 00:50:12;;;;;;;10.65;9.57;;;;;;;17.06;49.01;102515.09;4896583;29;20069;-85
2023/01/26 00:52:38;;;;;;;10.55;9.55;;;;;;;17.05;48.83;102509.00;4896430;29;20075;-84
2023/01/26 00:55:04;;;;;;;11.55;9.65;;;;;;;17.05;48.71;102508.16;4896651;29;20487;-86
2023/01/26 00:57:30;;;;;;;11.43;10.23;;;;;;;17.05;48.72;102509.00;4896351;29;20071;-86
2023/01/26 00:59:55;;;;;;;11.70;9.40;;;;;;;17.05;48.80;102506.41;4887994;29;20483;-77
2023/01/26 01:02:20;;;;;;;9.68;8.68;;;;;;;17.04;48.71;102502.03;4881375;29;20037;-77
2023/01/26 01:04:46;;;;;;;10.55;9.45;;;;;;;17.04;48.74;102503.78;4850547;29;20075;-77
2023/01/26 01:07:11;;;;;;;10.07;9.07;;;;;;;17.04;48.89;102504.63;4881480;29;20092;-75
2023/01/26 01:09:36;;;;;;;10.55;9.35;;;;;;;17.03;48.77;102504.63;4865805;29;20045;-77
2023/01/26 01:12:02;;;;;;;9.98;8.98;;;;;;;17.02;48.93;102506.34;4881365;29;20041;-76
2023/01/26 01:14:27;;;;;;;9.93;8.93;;;;;;;17.01;48.43;102508.94;4882540;29;20358;-78
2023/01/26 01:16:54;;;;;;;10.80;9.18;;;;;;;17.01;48.64;102507.19;4880941;29;20055;-78
2023/01/26 01:19:20;;;;;;;10.40;9.30;;;;;;;17.00;48.76;102501.97;4865460;29;20041;-78
2023/01/26 01:21:45;;;;;;;9.90;8.90;;;;;;;16.99;48.73;102508.88;4865595;29;20037;-75
2023/01/26 01:24:11;;;;;;;10.90;9.43;;;;;;;16.99;48.84;102506.28;4868405;29;20037;-78
2023/01/26 01:26:38;;;;;;;10.05;8.98;;;;;;;16.99;48.77;102510.63;4873778;29;20044;-76
2023/01/26 01:29:04;;;;;;;10.95;9.85;;;;;;;16.98;48.87;102514.91;4889699;29;20105;-77
2023/01/26 01:31:30;;;;;;;10.07;9.07;;;;;;;16.98;48.73;102512.31;4890433;29;20033;-76
2023/01/26 01:33:56;;;;;;;11.55;9.30;;;;;;;16.98;48.82;102508.84;4873302;29;20047;-77
2023/01/26 01:36:22;;;;;;;10.73;9.20;;;;;;;16.97;48.54;102515.78;4870444;29;20033;-77
2023/01/26 01:38:49;;;;;;;9.95;8.95;;;;;;;16.98;48.86;102519.25;4884848;29;20033;-77
2023/01/26 01:41:17;;;;;;;10.02;9.02;;;;;;;16.97;48.76;102520.97;4884696;29;20395;-78
2023/01/26 01:43:43;;;;;;;9.73;8.73;;;;;;;16.98;48.81;102516.66;4885919;29;20041;-77
2023/01/26 01:46:32;;;;;;;9.98;8.98;;;;;;;16.98;48.66;102514.06;4884002;29;20040;-78
2023/01/26 01:49:04;;;;;;;9.75;8.80;;;;;;;16.98;48.74;102522.72;4896577;29;20056;-85
2023/01/26 01:51:35;;;;;;;10.15;8.95;;;;;;;16.99;48.56;102521.88;4897889;29;20130;-85
2023/01/26 01:54:09;;;;;;;9.23;8.27;;;;;;;17.00;48.79;102522.75;4897613;29;20093;-86
2023/01/26 01:56:38;;;;;;;9.35;8.40;;;;;;;17.01;48.76;102522.81;4898662;29;20056;-87
2023/01/26 01:59:06;;;;;;;9.18;8.27;;;;;;;17.01;48.77;102533.19;4899165;29;20025;-86
2023/01/26 02:01:32;;;;;;;9.35;8.35;;;;;;;17.01;48.60;102527.13;4898088;29;20041;-86
2023/01/26 02:04:00;;;;;;;9.52;8.60;;;;;;;17.00;48.83;102523.63;4897266;29;20037;-85
2023/01/26 02:06:38;;;;;;;9.00;8.10;;;;;;;17.00;48.72;102526.22;4895728;29;20036;-84
2023/01/26 02:09:05;;;;;;;9.13;8.23;;;;;;;16.99;48.81;102524.50;4895853;29;20051;-85
2023/01/26 02:11:40;;;;;;;9.25;8.30;;;;;;;17.00;48.73;102522.75;4880880;29;20124;-85
2023/01/26 02:14:08;;;;;;;8.57;7.70;;;;;;;16.99;48.73;102524.50;4896557;29;20436;-86
2023/01/26 02:16:34;;;;;;;8.90;8.00;;;;;;;16.98;48.64;102522.72;4896068;29;20037;-86
2023/01/26 02:19:00;;;;;;;9.35;8.38;;;;;;;16.98;48.74;102521.84;4896651;29;20400;-86
2023/01/26 02:21:25;;;;;;;9.00;8.10;;;;;;;16.97;48.65;102517.50;4896057;29;20090;-85
2023/01/26 02:24:00;;;;;;;8.88;7.97;;;;;;;16.97;48.56;102517.50;4894546;29;20183;-85
2023/01/26 02:26:31;;;;;;;9.13;8.18;;;;;;;16.95;48.68;102514.88;4894432;29;20037;-85
2023/01/26 02:28:58;;;;;;;9.13;8.07;;;;;;;16.95;48.79;102507.06;4893696;29;20045;-85
2023/01/26 02:31:24;;;;;;;8.70;7.88;;;;;;;16.95;48.35;102508.81;4894730;29;20036;-88
2023/01/26 02:33:50;;;;;;;8.68;7.78;;;;;;;16.95;48.97;102521.81;4894951;29;20037;-86
2023/01/26 02:36:24;;;;;;;7.85;7.05;;;;;;;16.94;48.72;102505.34;4894508;29;20047;-86
2023/01/26 02:39:13;;;;;;;8.68;7.78;;;;;;;16.94;48.73;102514.84;4896213;29;20037;-87
2023/01/26 02:44:25;;;;;;;8.27;7.47;;;;;;;16.93;48.66;102523.50;4897359;29;20048;-87
2023/01/26 02:46:52;;;;;;;8.43;7.53;;;;;;;16.93;48.70;102526.09;4896472;29;20048;-86
2023/01/26 02:52:03;;;;;;;8.27;7.47;;;;;;;16.94;48.46;102526.13;4879666;29;20060;-87
2023/01/26 02:57:13;;;;;;;7.90;7.13;;;;;;;16.95;48.71;102527.00;4877847;29;20064;-85
2023/01/26 02:59:42;;;;;;;8.38;7.53;;;;;;;16.95;48.61;102533.06;4877312;29;20030;-86
2023/01/26 03:02:08;;;;;;;8.18;7.38;;;;;;;16.97;48.83;102533.13;4877674;29;20066;-85
2023/01/26 03:04:34;;;;;;;8.10;7.30;;;;;;;16.96;48.75;102532.25;4875549;29;20034;-87
2023/01/26 03:07:00;;;;;;;8.00;7.20;;;;;;;16.97;48.92;102533.13;4874132;29;20060;-85
2023/01/26 03:09:25;;;;;;;8.50;7.60;;;;;;;16.96;48.84;102537.44;4875930;29;20049;-86
2023/01/26 03:11:51;;;;;;;7.72;6.93;;;;;;;16.98;48.51;102537.47;4877759;29;20061;-86
2023/01/26 03:14:16;;;;;;;7.88;7.07;;;;;;;16.99;48.78;102534.91;4875529;29;20033;-85
2023/01/26 03:16:42;;;;;;;7.72;6.93;;;;;;;16.98;48.75;102540.94;4875864;29;20069;-85
2023/01/26 03:27:27;;;;;;;7.47;6.65;;;;;;;17.00;48.81;102544.44;4877303;29;20044;-86
2023/01/26 03:29:54;;;;;;;7.15;6.45;;;;;;;17.01;48.82;102540.13;4860022;29;20052;-86
2023/01/26 03:32:20;;;;;;;7.30;6.60;;;;;;;17.00;48.69;102538.38;4872090;29;20044;-81
2023/01/26 03:34:45;;;;;;;7.50;6.75;;;;;;;16.99;48.55;102536.63;4874690;29;20053;-76
2023/01/26 03:37:11;;;;;;;7.45;6.75;;;;;;;17.00;48.95;102543.56;4860170;29;20044;-78
2023/01/26 03:56:19;;;;;;;7.55;6.85;;;;;;;16.95;48.88;102521.81;4878956;29;20400;-85
2023/01/26 03:58:46;;;;;;;6.35;5.75;;;;;;;16.95;48.60;102529.59;4877253;29;20090;-83
2023/01/26 04:01:18;;;;;;;7.25;6.55;;;;;;;16.94;48.73;102520.03;4876700;29;20034;-85
2023/01/26 04:09:17;;;;;;;7.15;6.45;;;;;;;16.92;48.71;102513.91;4879261;29;20045;-86
2023/01/26 04:11:43;;;;;;;7.05;6.35;;;;;;;16.91;48.98;102518.25;4863147;29;20042;-85
2023/01/26 04:22:26;;;;;;;6.65;5.95;;;;;;;16.93;48.89;102516.56;4863586;29;20121;-85
2023/01/26 04:24:52;;;;;;;8.70;6.18;;;;;;;16.93;48.76;102518.28;4881301;29;20029;-85
2023/01/26 04:27:17;;;;;;;6.70;6.00;;;;;;;16.94;48.78;102520.94;4870000;29;20068;-85
2023/01/26 04:29:42;;;;;;;6.68;5.97;;;;;;;16.95;48.74;102527.00;4885650;29;20029;-86
2023/01/26 04:32:08;;;;;;;7.25;5.47;;;;;;;16.95;48.89;102522.69;4870347;29;20046;-85
2023/01/26 04:34:33;;;;;;;6.78;6.07;;;;;;;16.95;48.83;102525.28;4854831;29;20038;-85
2023/01/26 04:36:58;;;;;;;6.18;5.57;;;;;;;16.96;48.88;102524.44;4866921;29;20101;-86
2023/01/26 04:39:24;;;;;;;6.15;5.53;;;;;;;16.97;48.89;102530.50;4850371;29;20074;-86
2023/01/26 04:41:49;;;;;;;5.65;5.15;;;;;;;16.97;48.83;102522.72;4848521;29;20061;-85
2023/01/26 04:44:15;;;;;;;6.18;5.55;;;;;;;16.97;48.89;102523.59;4878739;29;20041;-86
2023/01/26 04:46:41;;;;;;;6.43;5.80;;;;;;;16.98;48.82;102527.06;4866490;29;20064;-85
2023/01/26 04:49:07;;;;;;;6.13;5.45;;;;;;;16.99;48.89;102518.41;4880646;29;20045;-85
2023/01/26 04:51:32;;;;;;;6.85;5.28;;;;;;;16.98;48.78;102525.31;4862053;29;20077;-86
2023/01/26 04:53:57;;;;;;;5.72;5.15;;;;;;;16.99;48.80;102523.63;4865915;29;20037;-85
2023/01/26 04:56:26;;;;;;;6.13;5.38;;;;;;;17.00;48.99;102525.38;4881024;29;20124;-86
2023/01/26 04:58:52;;;;;;;5.60;5.10;;;;;;;16.99;48.91;102524.50;4875509;29;20044;-86
2023/01/26 05:01:18;;;;;;;5.47;4.97;;;;;;;16.99;48.94;102521.03;4879666;29;20049;-85
2023/01/26 05:03:44;;;;;;;5.53;4.95;;;;;;;17.00;48.93;102512.34;4862962;29;20025;-86
2023/01/26 05:06:09;;;;;;;5.30;4.80;;;;;;;17.00;49.07;102510.63;4863091;29;20041;-84
2023/01/26 05:08:36;;;;;;;5.45;4.95;;;;;;;17.00;48.92;102521.03;4876672;29;20045;-85
2023/01/26 05:11:01;;;;;;;5.22;4.72;;;;;;;17.02;48.94;102513.25;4879861;29;20041;-84
2023/01/26 05:13:27;;;;;;;5.18;4.68;;;;;;;17.01;48.85;102515.00;4879331;29;20048;-85
2023/01/26 05:16:32;;;;;;;5.82;5.22;;;;;;;17.03;49.08;102525.44;4864021;29;20053;-85
2023/01/26 05:19:36;;;;;;;5.07;4.50;;;;;;;17.03;49.09;102515.03;4843621;29;20043;-85
2023/01/26 05:22:45;;;;;;;4.77;4.30;;;;;;;17.02;49.04;102521.94;4839346;29;20065;-86
2023/01/26 05:29:40;;;;;;;4.40;3.97;;;;;;;17.03;49.07;102531.50;4861745;29;20059;-86
2023/01/26 05:35:41;;;;;;;4.25;3.85;;;;;;;17.04;49.07;102541.06;4828043;29;20063;-84
2023/01/26 05:38:52;;;;;;;5.25;4.10;;;;;;;17.03;49.21;102531.50;4843418;29;20061;-86
2023/01/26 05:45:14;;;;;;;5.10;3.90;;;;;;;17.04;49.20;102546.25;4860257;29;20133;-85
2023/01/26 05:47:59;;;;;;;;;;;;;;;17.05;48.84;102545.44;4841433;29;20132;-85
2023/01/26 05:50:56;;;;;;;4.78;3.70;;;;;;;17.05;49.14;102549.75;4855040;29;19927;-84
2023/01/26 05:57:15;;;;;;;3.95;3.40;;;;;;;17.07;49.26;102550.63;4790120;30;20108;-88
2023/01/26 05:59:46;;;;;;;3.97;3.40;;;;;;;17.05;49.20;102542.81;4771596;30;20051;-86
2023/01/26 06:05:35;;;;;;;4.15;3.28;;;;;;;17.06;49.22;102552.38;4805966;29;20058;-87
2023/01/26 06:08:00;;;;;;;4.57;3.63;;;;;;;17.06;49.11;102556.69;4801881;29;20037;-86
2023/01/26 06:11:10;;;;;;;64.30;18.90;;;;;;;17.09;49.22;102553.28;4880073;29;20042;-86
2023/01/26 06:13:54;;;;;;;68.18;18.88;;;;;;;17.14;49.44;102554.25;4869684;29;20034;-80
2023/01/26 06:16:19;;;;;;;86.80;22.45;;;;;;;17.15;49.39;102561.22;4864381;29;20049;-80
2023/01/26 06:18:48;;;;;;;68.05;19.27;;;;;;;17.15;49.52;102563.81;4847733;29;20042;-80
2023/01/26 06:21:14;;;;;;;70.32;20.00;;;;;;;17.14;49.65;102567.28;4863409;29;20078;-83
2023/01/26 06:23:39;;;;;;;51.08;14.68;;;;;;;17.14;49.76;102573.34;4849062;29;20073;-83
2023/01/26 06:26:06;;;;;;;46.95;14.00;;;;;;;17.13;49.81;102581.97;4857715;29;20045;-83
2023/01/26 06:28:31;;;;;;;48.47;13.13;;;;;;;17.13;49.62;102578.50;4869769;29;20041;-82
2023/01/26 06:31:01;;;;;;;36.38;11.93;;;;;;;17.12;49.78;102581.97;4860470;29;20040;-84
2023/01/26 06:33:26;;;;;;;31.58;11.40;;;;;;;17.13;49.74;102583.72;4872060;29;20087;-84
2023/01/26 06:35:54;;;;;;;31.75;10.80;;;;;;;17.13;49.87;102586.31;4870840;29;20029;-83
2023/01/26 06:38:20;;;;;;;31.50;10.27;;;;;;;17.13;50.05;102591.50;4861423;29;20041;-85
2023/01/26 06:40:45;;;;;;;33.50;10.23;;;;;;;17.13;49.94;102586.31;4847934;29;20044;-87
2023/01/26 06:43:11;;;;;;;30.58;10.38;;;;;;;17.14;50.10;102593.28;4879479;29;20049;-86
2023/01/26 06:45:36;;;;;;;32.65;10.90;;;;;;;17.16;50.17;102592.47;4874385;29;20042;-89
2023/01/26 06:48:01;;;;;;;35.45;11.13;;;;;;;17.18;49.97;102595.06;4848738;29;20117;-87
2023/01/26 06:50:32;;;;;;;31.02;10.50;;;;;;;17.19;50.19;102597.72;4840946;29;20117;-85
2023/01/26 06:52:59;;;;;;;29.40;10.25;;;;;;;17.20;50.14;102602.09;4870008;29;20167;-85
2023/01/26 06:55:43;;;;;;;30.90;10.07;;;;;;;17.22;50.27;102604.69;4867165;29;20049;-84
2023/01/26 06:58:08;;;;;;;28.40;10.50;;;;;;;17.24;50.40;102605.59;4869226;29;20041;-84
2023/01/26 07:00:33;;;;;;;28.25;10.25;;;;;;;17.23;50.23;102609.94;4856507;29;20057;-85
2023/01/26 07:02:59;;;;;;;24.52;9.73;;;;;;;17.24;50.34;102613.41;4856626;29;20049;-84
2023/01/26 07:05:24;;;;;;;25.35;8.80;;;;;;;17.22;50.16;102610.81;4868811;29;20464;-85
2023/01/26 07:07:49;;;;;;;24.05;9.82;;;;;;;17.24;50.52;102613.41;4851110;29;20061;-82
2023/01/26 07:10:15;;;;;;;20.92;9.20;;;;;;;17.24;50.45;102609.09;4864470;29;20064;-84
2023/01/26 07:12:43;;;;;;;28.08;9.48;;;;;;;17.23;50.25;102615.16;4866619;29;20162;-83
2023/01/26 07:15:10;;;;;;;22.38;8.50;;;;;;;17.22;50.34;102609.91;4865077;29;20066;-84
2023/01/26 07:17:36;;;;;;;22.17;8.65;;;;;;;17.23;50.28;102612.53;4865029;29;20036;-84
2023/01/26 07:20:01;;;;;;;22.30;8.27;;;;;;;17.22;50.35;102616.00;4834710;29;20061;-83
2023/01/26 07:22:27;;;;;;;18.60;8.05;;;;;;;17.22;50.30;102610.81;4866016;29;20105;-84
2023/01/26 07:24:52;;;;;;;18.23;7.70;;;;;;;17.22;50.50;102618.59;4864304;29;20041;-83
2023/01/26 07:27:18;;;;;;;17.65;7.40;;;;;;;17.22;50.32;102622.91;4881873;29;20097;-84
2023/01/26 07:29:45;;;;;;;18.77;7.90;;;;;;;17.23;50.24;102622.94;4853144;29;20038;-84
2023/01/26 07:32:10;;;;;;;17.33;7.93;;;;;;;17.21;50.17;102619.44;4885699;29;20046;-84
2023/01/26 07:34:36;;;;;;;18.65;7.63;;;;;;;17.21;50.10;102631.59;4865264;29;20061;-84
2023/01/26 07:37:01;;;;;;;19.00;7.78;;;;;;;17.22;50.35;102629.03;4862423;29;20053;-84
2023/01/26 07:39:27;;;;;;;18.83;7.57;;;;;;;17.23;50.16;102635.09;4861002;29;20038;-84
2023/01/26 07:41:52;;;;;;;18.08;7.50;;;;;;;17.22;50.18;102638.53;4876225;29;20079;-84
2023/01/26 07:44:17;;;;;;;15.88;6.80;;;;;;;17.22;50.25;102644.63;4844084;29;20044;-84
2023/01/26 07:46:43;;;;;;;16.05;6.65;;;;;;;17.21;50.13;102649.78;4843322;29;20493;-85
2023/01/26 07:49:11;;;;;;;17.55;7.35;;;;;;;17.22;50.16;102646.31;4841543;29;20038;-83
2023/01/26 07:51:38;;;;;;;16.38;7.10;;;;;;;17.22;50.20;102649.84;4853973;29;20140;-85
2023/01/26 07:54:04;;;;;;;15.15;6.45;;;;;;;17.22;50.01;102648.94;4870334;29;20091;-85
2023/01/26 07:56:29;;;;;;;15.57;6.90;;;;;;;17.21;50.12;102650.66;4854812;29;20034;-84
2023/01/26 07:58:55;;;;;;;14.70;6.18;;;;;;;17.22;50.08;102659.34;4853528;29;20053;-85
2023/01/26 08:01:21;;;;;;;12.10;6.00;;;;;;;17.21;50.25;102661.06;4852698;29;20034;-85
2023/01/26 08:03:49;;;;;;;14.10;6.05;;;;;;;17.23;50.09;102669.78;4852566;29;20129;-85
2023/01/26 08:06:16;;;;;;;14.50;6.18;;;;;;;17.22;50.05;102664.53;4851394;29;20052;-77
2023/01/26 08:08:42;;;;;;;11.63;5.43;;;;;;;17.24;49.89;102665.44;4846045;29;20053;-76
2023/01/26 08:11:08;;;;;;;11.25;5.60;;;;;;;17.23;50.05;102664.59;4861369;29;20567;-77
2023/01/26 08:13:34;;;;;;;11.15;5.28;;;;;;;17.24;50.05;102670.66;4846852;29;20038;-77
2023/01/26 08:16:01;;;;;;;12.25;5.55;;;;;;;17.24;50.13;102666.31;4845386;29;20061;-76
2023/01/26 08:18:27;;;;;;;12.23;5.45;;;;;;;17.24;50.04;102668.94;4846508;29;20036;-77
2023/01/26 08:20:53;;;;;;;11.95;5.70;;;;;;;17.24;49.92;102668.06;4845273;29;20046;-76
2023/01/26 08:23:19;;;;;;;10.25;5.03;;;;;;;17.25;49.93;102672.44;4845590;29;20038;-78
2023/01/26 08:25:45;;;;;;;10.98;4.93;;;;;;;17.26;49.99;102674.16;4860796;29;20057;-78
2023/01/26 08:28:11;;;;;;;11.27;5.30;;;;;;;17.25;49.93;102675.91;4846082;29;20042;-75
2023/01/26 08:30:36;;;;;;;10.88;4.93;;;;;;;17.27;50.02;102678.53;4846248;29;20374;-77
2023/01/26 08:33:03;;;;;;;9.15;4.72;;;;;;;17.26;49.79;102675.03;4829507;29;20428;-75
2023/01/26 08:35:30;;;;;;;10.95;4.90;;;;;;;17.26;49.63;102672.44;4844614;29;20135;-74
2023/01/26 08:37:56;;;;;;;10.13;4.22;;;;;;;17.28;50.15;102682.88;4845472;29;20034;-78
2023/01/26 08:40:23;;;;;;;10.82;4.90;;;;;;;17.28;49.67;102678.56;4844988;29;20038;-77
2023/01/26 08:42:49;;;;;;;10.80;4.65;;;;;;;17.29;49.85;102684.66;4844759;29;20433;-77
2023/01/26 08:45:14;;;;;;;8.35;4.30;;;;;;;17.31;49.63;102687.28;4844496;29;20042;-78
2023/01/26 08:47:40;;;;;;;7.78;4.45;;;;;;;17.32;49.88;102686.44;4844364;29;20512;-76
2023/01/26 08:50:06;;;;;;;8.50;4.20;;;;;;;17.32;49.77;102692.53;4831869;29;20519;-75
2023/01/26 08:52:31;;;;;;;8.48;4.07;;;;;;;17.33;49.81;102696.88;4847199;29;20050;-78
2023/01/26 08:54:56;;;;;;;8.45;4.13;;;;;;;17.34;49.64;102695.16;4862718;29;20041;-77
2023/01/26 08:57:22;;;;;;;8.00;4.13;;;;;;;17.34;49.72;102696.03;4831986;29;20417;-78
2023/01/26 08:59:47;;;;;;;7.10;4.03;;;;;;;17.35;49.92;102700.38;4863175;29;20065;-77
2023/01/26 09:02:12;;;;;;;7.05;3.80;;;;;;;17.36;49.63;102706.47;4832651;29;20048;-75
2023/01/26 09:04:38;;;;;;;8.35;4.00;;;;;;;17.36;49.59;102706.47;4864415;29;20052;-77
2023/01/26 09:07:04;;;;;;;7.60;4.03;;;;;;;17.36;49.44;102706.47;4833044;29;20048;-77
2023/01/26 09:09:30;;;;;;;7.20;4.28;;;;;;;17.36;49.58;102715.16;4849626;29;20048;-77
2023/01/26 09:11:55;;;;;;;7.90;3.90;;;;;;;17.37;49.31;102711.69;4864606;29;20045;-77
2023/01/26 09:14:21;;;;;;;7.35;3.60;;;;;;;17.38;49.72;102723.88;4849046;29;20052;-77
2023/01/26 09:16:46;;;;;;;6.75;3.35;;;;;;;17.38;49.50;102717.81;4850154;29;20053;-76
2023/01/26 09:19:12;;;;;;;7.28;3.58;;;;;;;17.38;49.41;102718.69;4848308;29;20029;-77
2023/01/26 09:21:37;;;;;;;7.32;3.58;;;;;;;17.38;49.53;102710.88;4863706;29;20178;-77
2023/01/26 09:24:03;;;;;;;6.65;3.63;;;;;;;17.38;49.53;102710.88;4863759;29;20114;-77
2023/01/26 09:26:29;;;;;;;7.43;3.65;;;;;;;17.38;49.37;102710.88;4846732;29;20041;-77
2023/01/26 09:28:55;;;;;;;7.05;3.55;;;;;;;17.38;49.66;102716.06;4846794;29;20515;-75
2023/01/26 09:31:20;;;;;;;5.57;3.05;;;;;;;17.40;49.35;102718.72;4861918;29;20121;-75
2023/01/26 09:33:47;;;;;;;7.82;3.40;;;;;;;17.39;49.48;102715.22;4831203;29;20034;-77
2023/01/26 09:36:13;;;;;;;5.55;3.15;;;;;;;17.39;49.46;102714.34;4846381;29;20148;-77
2023/01/26 09:38:39;;;;;;;8.00;3.53;;;;;;;17.39;49.33;102714.34;4861968;29;20455;-77
2023/01/26 09:41:07;;;;;;;5.70;3.22;;;;;;;17.40;49.28;102713.50;4846619;29;20045;-77
2023/01/26 09:43:49;;;;;;;6.10;3.15;;;;;;;17.40;49.50;102713.50;4862900;29;20037;-77
2023/01/26 09:46:26;;;;;;;6.13;3.08;;;;;;;17.39;49.34;102710.00;4861606;29;20492;-78
2023/01/26 09:49:06;;;;;;;6.25;3.08;;;;;;;17.41;49.51;102715.25;4863020;29;20132;-77
2023/01/26 09:51:36;;;;;;;6.07;3.00;;;;;;;17.40;49.35;102719.59;4880803;29;20075;-74
2023/01/26 09:54:25;;;;;;;5.82;2.95;;;;;;;17.40;49.47;102719.59;4864624;29;20564;-76
2023/01/26 09:56:53;;;;;;;6.18;3.00;;;;;;;17.40;49.43;102716.13;4864646;29;20086;-77
2023/01/26 09:59:40;;;;;;;4.38;2.85;;;;;;;17.42;49.22;102719.59;4881255;29;20033;-77
2023/01/26 10:02:12;;;;;;;6.47;3.00;;;;;;;17.42;49.41;102712.69;4881375;29;20029;-77
2023/01/26 10:04:41;;;;;;;5.97;3.13;;;;;;;17.41;49.36;102710.91;4864348;29;20064;-77
2023/01/26 10:07:13;;;;;;;5.75;2.95;;;;;;;17.41;49.49;102713.53;4864322;29;20052;-75
2023/01/26 10:09:41;;;;;;;5.40;2.70;;;;;;;17.42;49.30;102727.41;4864584;29;20085;-76
2023/01/26 10:12:16;;;;;;;5.80;2.50;;;;;;;17.42;49.46;102720.50;4864354;29;20043;-76
2023/01/26 10:15:00;;;;;;;4.90;2.42;;;;;;;17.44;49.41;102723.13;4864410;29;20089;-77
2023/01/26 10:17:34;;;;;;;5.00;2.60;;;;;;;17.44;48.98;102718.81;4864645;29;20033;-78
2023/01/26 10:20:05;;;;;;;5.45;2.83;;;;;;;17.44;49.40;102724.03;4864099;29;20063;-75
2023/01/26 10:22:49;;;;;;;4.75;2.45;;;;;;;17.43;49.18;102719.63;4864283;29;20037;-75
2023/01/26 10:25:15;;;;;;;;;;;;;;;17.44;49.41;102720.50;4870999;29;20064;-76
2023/01/26 10:27:42;;;;;;;5.28;2.70;;;;;;;17.46;49.24;102724.94;4871521;29;20375;-76
2023/01/26 10:30:16;;;;;;;5.15;2.70;;;;;;;17.47;49.18;102731.00;4842714;29;20045;-76
2023/01/26 10:32:44;;;;;;;7.03;2.50;;;;;;;17.47;49.18;102731.00;4873321;29;20040;-76
2023/01/26 10:35:21;;;;;;;5.25;2.63;;;;;;;17.48;49.20;102737.94;4870400;29;20061;-77
2023/01/26 10:37:47;;;;;;;4.80;2.53;;;;;;;17.48;49.26;102740.56;4868813;29;20131;-77
2023/01/26 10:40:13;;;;;;;6.15;2.40;;;;;;;17.48;49.31;102741.47;4852553;29;20037;-76
2023/01/26 10:42:39;;;;;;;4.55;2.20;;;;;;;17.48;49.35;102741.47;4867645;29;20085;-77
2023/01/26 10:45:30;;;;;;;4.22;2.28;;;;;;;17.48;49.10;102744.06;4883821;29;20449;-77
2023/01/26 10:48:16;;;;;;;3.75;2.20;;;;;;;17.49;49.23;102737.13;4883322;29;20120;-77
2023/01/26 10:50:42;;;;;;;4.00;2.20;;;;;;;17.50;49.32;102738.88;4866259;29;20066;-76
2023/01/26 10:53:14;;;;;;;5.07;2.20;;;;;;;17.48;49.15;102738.84;4851326;29;20045;-76
2023/01/26 10:55:40;;;;;;;4.35;2.17;;;;;;;17.50;49.29;102733.66;4865755;29;20041;-77
2023/01/26 10:58:40;;;;;;;4.15;1.92;;;;;;;17.50;49.23;102728.44;4866296;29;20154;-77
2023/01/26 11:01:11;;;;;;;4.10;2.20;;;;;;;17.51;49.08;102735.44;4865805;29;20045;-74
2023/01/26 11:03:38;;;;;;;5.75;2.30;;;;;;;17.52;49.23;102728.50;4865951;29;20060;-77
2023/01/26 11:06:17;;;;;;;4.55;2.20;;;;;;;17.51;48.95;102726.72;4882610;29;20045;-77
2023/01/26 11:08:43;;;;;;;3.60;1.90;;;;;;;17.52;49.15;102737.19;4881708;29;20101;-77
2023/01/26 11:11:37;;;;;;;4.30;1.92;;;;;;;17.53;48.88;102736.34;4849359;29;20037;-76
2023/01/26 11:14:18;;;;;;;4.10;2.05;;;;;;;17.53;49.17;102735.44;4848947;29;20037;-76
2023/01/26 11:16:52;;;;;;;3.70;2.08;;;;;;;17.53;49.06;102733.75;4864364;29;20041;-77
2023/01/26 11:19:36;;;;;;;3.65;2.00;;;;;;;17.54;49.14;102735.47;4864036;29;20033;-77
2023/01/26 11:22:07;;;;;;;3.80;1.98;;;;;;;17.53;48.88;102730.25;4863870;29;20037;-77
2023/01/26 11:24:54;;;;;;;5.05;2.00;;;;;;;17.54;48.93;102726.81;4864193;29;20040;-76
2023/01/26 11:27:35;;;;;;;3.83;1.85;;;;;;;17.56;49.15;102735.53;4842657;29;20150;-77
2023/01/26 11:30:16;;;;;;;4.40;2.00;;;;;;;17.54;49.28;102735.47;4863957;29;20040;-77
2023/01/26 11:32:45;;;;;;;3.28;1.77;;;;;;;17.56;48.88;102733.78;4864293;29;20037;-78
2023/01/26 11:35:34;;;;;;;3.70;1.70;;;;;;;17.56;49.13;102735.53;4864034;29;20037;-75
2023/01/26 11:38:26;;;;;;;2.90;1.60;;;;;;;17.56;48.97;102733.78;4863629;29;20041;-77
2023/01/26 11:41:11;;;;;;;3.63;1.90;;;;;;;17.56;49.00;102731.19;4863790;29;20037;-78
2023/01/26 11:44:07;;;;;;;3.60;1.77;;;;;;;17.58;49.07;102726.03;4880164;29;20064;-78
2023/01/26 11:46:37;;;;;;;4.38;2.00;;;;;;;17.57;48.98;102730.38;4863826;29;20146;-75
2023/01/26 11:49:06;;;;;;;4.00;1.88;;;;;;;17.57;49.09;102730.38;4864036;29;20040;-76
2023/01/26 11:52:08;;;;;;;3.75;1.80;;;;;;;17.58;49.14;102724.28;4863153;29;20045;-76
2023/01/26 11:54:48;;;;;;;4.60;1.88;;;;;;;17.58;48.88;102724.28;4881016;29;20096;-77
2023/01/26 11:57:49;;;;;;;2.90;1.80;;;;;;;17.59;48.86;102726.03;4864954;29;20041;-76
2023/01/26 12:00:14;;;;;;;3.47;1.60;;;;;;;17.59;48.84;102727.75;4866335;29;20452;-77
2023/01/26 12:02:42;;;;;;;3.65;1.73;;;;;;;17.58;49.15;102726.03;4883370;29;20037;-77
2023/01/26 12:05:18;;;;;;;3.58;1.52;;;;;;;17.58;48.98;102721.69;4866303;29;20414;-77
2023/01/26 12:07:59;;;;;;;4.03;1.52;;;;;;;17.58;49.00;102713.00;4865697;29;20096;-77
2023/01/26 12:10:46;;;;;;;3.33;1.65;;;;;;;17.59;48.91;102710.41;4865324;29;20097;-77
2023/01/26 12:13:33;;;;;;;3.13;1.60;;;;;;;17.59;48.83;102699.13;4882995;29;20503;-75
2023/01/26 12:16:07;;;;;;;3.53;1.95;;;;;;;17.60;49.08;102695.69;4866726;29;20048;-78
2023/01/26 12:18:44;;;;;;;3.97;2.08;;;;;;;17.60;49.01;102701.78;4866396;29;20116;-76
2023/01/26 12:21:10;;;;;;;3.55;1.88;;;;;;;17.62;48.96;102689.66;4882827;29;20037;-77
2023/01/26 12:24:03;;;;;;;3.13;1.83;;;;;;;17.62;49.04;102684.47;4866172;29;20052;-77
2023/01/26 12:26:35;;;;;;;3.25;1.55;;;;;;;17.64;48.78;102681.91;4882817;29;20041;-76
2023/01/26 12:29:14;;;;;;;2.40;1.35;;;;;;;17.65;48.75;102683.63;4866043;29;20037;-77
2023/01/26 12:31:46;;;;;;;3.35;1.60;;;;;;;17.64;48.78;102684.50;4882868;29;20041;-77
2023/01/26 12:34:12;;;;;;;3.22;1.50;;;;;;;17.65;48.76;102674.09;4866009;29;20290;-77
2023/01/26 12:36:55;;;;;;;3.65;1.40;;;;;;;17.66;48.94;102675.00;4866254;29;20110;-78
2023/01/26 12:39:34;;;;;;;3.42;1.70;;;;;;;17.65;48.97;102671.50;4882869;29;20108;-78
2023/01/26 12:42:32;;;;;;;2.47;1.25;;;;;;;17.66;48.47;102670.66;4865840;29;20093;-78